sensor_id;sensor_type;location;lat;lon;timestamp;temperature;humidity
24686;DHT22;12804;51.176;4.452;2023-02-22T00:00:20;6.90;99.90
24686;DHT22;12804;51.176;4.452;2023-02-22T00:03:05;7.00;99.90
24686;DHT22;12804;51.176;4.452;2023-02-22T00:05:32;6.80;99.90
24686;DHT22;12804;51.176;4.452;2023-02-22T00:07:58;6.90;99.90
24686;DHT22;12804;51.176;4.452;2023-02-22T00:10:26;6.70;99.90
24686;DHT22;12804;51.176;4.452;2023-02-22T00:12:53;6.80;99.90
24686;DHT22;12804;51.176;4.452;2023-02-22T00:15:23;6.80;99.90
24686;DHT22;12804;51.176;4.452;2023-02-22T00:17:53;6.80;99.90
24686;DHT22;12804;51.176;4.452;2023-02-22T00:20:19;6.80;99.90
24686;DHT22;12804;51.176;4.452;2023-02-22T00:22:46;6.90;99.90
24686;DHT22;12804;51.176;4.452;2023-02-22T00:25:15;6.80;99.90
24686;DHT22;12804;51.176;4.452;2023-02-22T00:27:45;6.90;99.90
24686;DHT22;12804;51.176;4.452;2023-02-22T00:30:23;7.10;99.90
24686;DHT22;12804;51.176;4.452;2023-02-22T00:32:50;7.10;99.90
24686;DHT22;12804;51.176;4.452;2023-02-22T00:35:17;7.10;99.90
24686;DHT22;12804;51.176;4.452;2023-02-22T00:37:47;7.10;99.90
24686;DHT22;12804;51.176;4.452;2023-02-22T00:40:17;7.10;99.90
24686;DHT22;12804;51.176;4.452;2023-02-22T00:42:43;7.10;99.90
24686;DHT22;12804;51.176;4.452;2023-02-22T00:45:14;7.20;99.90
24686;DHT22;12804;51.176;4.452;2023-02-22T00:47:41;7.20;99.90
24686;DHT22;12804;51.176;4.452;2023-02-22T00:50:08;7.10;99.90
24686;DHT22;12804;51.176;4.452;2023-02-22T00:52:35;7.20;99.90
24686;DHT22;12804;51.176;4.452;2023-02-22T00:55:03;7.10;99.90
24686;DHT22;12804;51.176;4.452;2023-02-22T00:57:30;7.10;99.90
24686;DHT22;12804;51.176;4.452;2023-02-22T00:59:56;7.10;99.90
24686;DHT22;12804;51.176;4.452;2023-02-22T01:02:22;7.10;99.90
24686;DHT22;12804;51.176;4.452;2023-02-22T01:04:48;6.90;99.90
24686;DHT22;12804;51.176;4.452;2023-02-22T01:07:13;7.00;99.90
24686;DHT22;12804;51.176;4.452;2023-02-22T01:09:39;7.00;99.90
24686;DHT22;12804;51.176;4.452;2023-02-22T01:12:07;7.10;99.90
24686;DHT22;12804;51.176;4.452;2023-02-22T01:14:33;7.00;99.90
24686;DHT22;12804;51.176;4.452;2023-02-22T01:16:59;7.00;99.90
24686;DHT22;12804;51.176;4.452;2023-02-22T01:19:25;7.00;99.90
24686;DHT22;12804;51.176;4.452;2023-02-22T01:21:51;7.10;99.90
24686;DHT22;12804;51.176;4.452;2023-02-22T01:24:19;7.00;99.90
24686;DHT22;12804;51.176;4.452;2023-02-22T01:26:50;7.10;99.90
24686;DHT22;12804;51.176;4.452;2023-02-22T01:29:17;7.00;99.90
24686;DHT22;12804;51.176;4.452;2023-02-22T01:31:49;7.10;99.90
24686;DHT22;12804;51.176;4.452;2023-02-22T01:34:16;7.20;99.90
24686;DHT22;12804;51.176;4.452;2023-02-22T01:36:42;7.10;99.90
24686;DHT22;12804;51.176;4.452;2023-02-22T01:39:08;7.20;99.90
24686;DHT22;12804;51.176;4.452;2023-02-22T01:41:37;7.30;99.90
24686;DHT22;12804;51.176;4.452;2023-02-22T01:44:26;7.30;99.90
24686;DHT22;12804;51.176;4.452;2023-02-22T01:46:57;7.30;99.90
24686;DHT22;12804;51.176;4.452;2023-02-22T01:49:40;7.10;99.90
24686;DHT22;12804;51.176;4.452;2023-02-22T01:52:09;6.90;99.90
24686;DHT22;12804;51.176;4.452;2023-02-22T01:54:46;6.90;99.90
24686;DHT22;12804;51.176;4.452;2023-02-22T01:57:26;6.90;99.90
24686;DHT22;12804;51.176;4.452;2023-02-22T01:59:58;7.00;99.90
24686;DHT22;12804;51.176;4.452;2023-02-22T02:02:25;6.90;99.90
24686;DHT22;12804;51.176;4.452;2023-02-22T02:04:54;6.80;99.90
24686;DHT22;12804;51.176;4.452;2023-02-22T02:07:22;6.80;99.90
24686;DHT22;12804;51.176;4.452;2023-02-22T02:09:59;6.80;99.90
24686;DHT22;12804;51.176;4.452;2023-02-22T02:12:29;6.80;99.90
24686;DHT22;12804;51.176;4.452;2023-02-22T02:15:26;6.80;99.90
24686;DHT22;12804;51.176;4.452;2023-02-22T02:17:55;6.80;99.90
24686;DHT22;12804;51.176;4.452;2023-02-22T02:34:10;7.20;99.90
24686;DHT22;12804;51.176;4.452;2023-02-22T02:37:11;6.80;99.90
24686;DHT22;12804;51.176;4.452;2023-02-22T02:42:13;6.60;99.90
24686;DHT22;12804;51.176;4.452;2023-02-22T02:45:12;6.50;99.90
24686;DHT22;12804;51.176;4.452;2023-02-22T02:47:45;6.30;99.90
24686;DHT22;12804;51.176;4.452;2023-02-22T02:50:23;6.40;99.90
24686;DHT22;12804;51.176;4.452;2023-02-22T02:52:54;6.40;99.90
24686;DHT22;12804;51.176;4.452;2023-02-22T02:55:22;6.40;99.90
24686;DHT22;12804;51.176;4.452;2023-02-22T02:57:48;6.30;99.90
24686;DHT22;12804;51.176;4.452;2023-02-22T03:00:19;6.30;99.90
24686;DHT22;12804;51.176;4.452;2023-02-22T03:06:18;6.40;99.90
24686;DHT22;12804;51.176;4.452;2023-02-22T03:09:07;6.20;99.90
24686;DHT22;12804;51.176;4.452;2023-02-22T03:11:50;6.30;99.90
24686;DHT22;12804;51.176;4.452;2023-02-22T03:17:51;6.20;99.90
24686;DHT22;12804;51.176;4.452;2023-02-22T03:21:06;6.20;99.90
24686;DHT22;12804;51.176;4.452;2023-02-22T03:24:08;6.30;99.90
24686;DHT22;12804;51.176;4.452;2023-02-22T03:26:43;6.30;99.90
24686;DHT22;12804;51.176;4.452;2023-02-22T03:29:13;6.40;99.90
24686;DHT22;12804;51.176;4.452;2023-02-22T03:31:48;6.20;99.90
24686;DHT22;12804;51.176;4.452;2023-02-22T03:34:23;6.30;99.90
24686;DHT22;12804;51.176;4.452;2023-02-22T03:37:05;6.40;99.90
24686;DHT22;12804;51.176;4.452;2023-02-22T03:39:35;6.40;99.90
24686;DHT22;12804;51.176;4.452;2023-02-22T03:42:13;6.40;99.90
24686;DHT22;12804;51.176;4.452;2023-02-22T03:44:40;6.30;99.90
24686;DHT22;12804;51.176;4.452;2023-02-22T03:47:15;6.20;99.90
24686;DHT22;12804;51.176;4.452;2023-02-22T03:49:50;6.10;99.90
24686;DHT22;12804;51.176;4.452;2023-02-22T03:52:18;6.20;99.90
24686;DHT22;12804;51.176;4.452;2023-02-22T03:54:44;6.20;99.90
24686;DHT22;12804;51.176;4.452;2023-02-22T03:57:18;6.10;99.90
24686;DHT22;12804;51.176;4.452;2023-02-22T03:59:50;6.30;99.90
24686;DHT22;12804;51.176;4.452;2023-02-22T04:02:16;6.40;99.90
24686;DHT22;12804;51.176;4.452;2023-02-22T04:04:45;6.40;99.90
24686;DHT22;12804;51.176;4.452;2023-02-22T04:07:11;6.40;99.90
24686;DHT22;12804;51.176;4.452;2023-02-22T04:09:38;6.40;99.90
24686;DHT22;12804;51.176;4.452;2023-02-22T04:12:04;6.40;99.90
24686;DHT22;12804;51.176;4.452;2023-02-22T04:14:40;6.40;99.90
24686;DHT22;12804;51.176;4.452;2023-02-22T04:17:06;6.30;99.90
24686;DHT22;12804;51.176;4.452;2023-02-22T04:19:32;6.40;99.90
24686;DHT22;12804;51.176;4.452;2023-02-22T04:21:58;6.40;99.90
24686;DHT22;12804;51.176;4.452;2023-02-22T04:24:24;6.60;99.90
24686;DHT22;12804;51.176;4.452;2023-02-22T04:26:51;6.50;99.90
24686;DHT22;12804;51.176;4.452;2023-02-22T04:29:19;6.50;99.90
24686;DHT22;12804;51.176;4.452;2023-02-22T04:31:45;6.50;99.90
24686;DHT22;12804;51.176;4.452;2023-02-22T04:34:11;6.60;99.90
24686;DHT22;12804;51.176;4.452;2023-02-22T04:36:39;6.60;99.90
24686;DHT22;12804;51.176;4.452;2023-02-22T04:39:07;6.60;99.90
24686;DHT22;12804;51.176;4.452;2023-02-22T04:41:33;6.50;99.90
24686;DHT22;12804;51.176;4.452;2023-02-22T04:43:59;6.60;99.90
24686;DHT22;12804;51.176;4.452;2023-02-22T04:46:26;6.50;99.90
24686;DHT22;12804;51.176;4.452;2023-02-22T04:48:53;6.40;99.90
24686;DHT22;12804;51.176;4.452;2023-02-22T04:51:21;6.40;99.90
24686;DHT22;12804;51.176;4.452;2023-02-22T04:54:07;6.20;99.90
24686;DHT22;12804;51.176;4.452;2023-02-22T04:56:35;6.40;99.90
24686;DHT22;12804;51.176;4.452;2023-02-22T04:59:01;6.30;99.90
24686;DHT22;12804;51.176;4.452;2023-02-22T05:01:35;6.30;99.90
24686;DHT22;12804;51.176;4.452;2023-02-22T05:04:05;6.20;99.90
24686;DHT22;12804;51.176;4.452;2023-02-22T05:06:32;6.20;99.90
24686;DHT22;12804;51.176;4.452;2023-02-22T05:08:58;6.20;99.90
24686;DHT22;12804;51.176;4.452;2023-02-22T05:11:24;6.30;99.90
24686;DHT22;12804;51.176;4.452;2023-02-22T05:13:50;6.20;99.90
24686;DHT22;12804;51.176;4.452;2023-02-22T05:16:15;6.20;99.90
24686;DHT22;12804;51.176;4.452;2023-02-22T05:18:41;6.30;99.90
24686;DHT22;12804;51.176;4.452;2023-02-22T05:21:08;6.20;99.90
24686;DHT22;12804;51.176;4.452;2023-02-22T05:23:33;6.30;99.90
24686;DHT22;12804;51.176;4.452;2023-02-22T05:26:00;6.20;99.90
24686;DHT22;12804;51.176;4.452;2023-02-22T05:28:26;6.20;99.90
24686;DHT22;12804;51.176;4.452;2023-02-22T05:30:52;6.20;99.90
24686;DHT22;12804;51.176;4.452;2023-02-22T05:33:18;6.30;99.90
24686;DHT22;12804;51.176;4.452;2023-02-22T05:35:44;6.20;99.90
24686;DHT22;12804;51.176;4.452;2023-02-22T05:38:13;6.10;99.90
24686;DHT22;12804;51.176;4.452;2023-02-22T05:40:40;6.20;99.90
24686;DHT22;12804;51.176;4.452;2023-02-22T05:43:06;6.20;99.90
24686;DHT22;12804;51.176;4.452;2023-02-22T05:45:32;6.10;99.90
24686;DHT22;12804;51.176;4.452;2023-02-22T05:47:59;6.00;99.90
24686;DHT22;12804;51.176;4.452;2023-02-22T05:50:25;5.90;99.90
24686;DHT22;12804;51.176;4.452;2023-02-22T05:52:51;5.80;99.90
24686;DHT22;12804;51.176;4.452;2023-02-22T05:55:20;6.00;99.90
24686;DHT22;12804;51.176;4.452;2023-02-22T05:57:46;5.90;99.90
24686;DHT22;12804;51.176;4.452;2023-02-22T06:02:43;5.70;99.90
24686;DHT22;12804;51.176;4.452;2023-02-22T06:05:09;5.80;99.90
24686;DHT22;12804;51.176;4.452;2023-02-22T06:07:35;5.70;99.90
24686;DHT22;12804;51.176;4.452;2023-02-22T06:10:00;5.80;99.90
24686;DHT22;12804;51.176;4.452;2023-02-22T06:12:26;5.90;99.90
24686;DHT22;12804;51.176;4.452;2023-02-22T06:14:52;5.80;99.90
24686;DHT22;12804;51.176;4.452;2023-02-22T06:17:18;5.90;99.90
24686;DHT22;12804;51.176;4.452;2023-02-22T06:19:44;5.70;99.90
24686;DHT22;12804;51.176;4.452;2023-02-22T06:22:17;5.70;99.90
24686;DHT22;12804;51.176;4.452;2023-02-22T06:24:44;5.60;99.90
24686;DHT22;12804;51.176;4.452;2023-02-22T06:27:10;5.70;99.90
24686;DHT22;12804;51.176;4.452;2023-02-22T06:29:36;5.80;99.90
24686;DHT22;12804;51.176;4.452;2023-02-22T06:32:02;5.80;99.90
24686;DHT22;12804;51.176;4.452;2023-02-22T06:34:28;5.80;99.90
24686;DHT22;12804;51.176;4.452;2023-02-22T06:36:54;5.80;99.90
24686;DHT22;12804;51.176;4.452;2023-02-22T06:39:19;5.70;99.90
24686;DHT22;12804;51.176;4.452;2023-02-22T06:41:46;5.70;99.90
24686;DHT22;12804;51.176;4.452;2023-02-22T06:44:14;5.80;99.90
24686;DHT22;12804;51.176;4.452;2023-02-22T06:46:46;5.90;99.90
24686;DHT22;12804;51.176;4.452;2023-02-22T06:49:13;6.00;99.90
24686;DHT22;12804;51.176;4.452;2023-02-22T06:51:39;6.00;99.90
24686;DHT22;12804;51.176;4.452;2023-02-22T06:54:04;5.90;99.90
24686;DHT22;12804;51.176;4.452;2023-02-22T06:56:30;5.90;99.90
24686;DHT22;12804;51.176;4.452;2023-02-22T06:58:56;5.80;99.90
24686;DHT22;12804;51.176;4.452;2023-02-22T07:01:22;5.80;99.90
24686;DHT22;12804;51.176;4.452;2023-02-22T07:03:48;5.80;99.90
24686;DHT22;12804;51.176;4.452;2023-02-22T07:06:14;5.90;99.90
24686;DHT22;12804;51.176;4.452;2023-02-22T07:08:40;5.90;99.90
24686;DHT22;12804;51.176;4.452;2023-02-22T07:11:06;5.90;99.90
24686;DHT22;12804;51.176;4.452;2023-02-22T07:13:32;5.90;99.90
24686;DHT22;12804;51.176;4.452;2023-02-22T07:15:58;5.90;99.90
24686;DHT22;12804;51.176;4.452;2023-02-22T07:18:24;5.90;99.90
24686;DHT22;12804;51.176;4.452;2023-02-22T07:20:50;5.90;99.90
24686;DHT22;12804;51.176;4.452;2023-02-22T07:23:16;5.90;99.90
24686;DHT22;12804;51.176;4.452;2023-02-22T07:25:43;5.90;99.90
24686;DHT22;12804;51.176;4.452;2023-02-22T07:28:09;6.80;99.90
24686;DHT22;12804;51.176;4.452;2023-02-22T07:30:36;8.50;99.90
24686;DHT22;12804;51.176;4.452;2023-02-22T07:33:07;8.00;99.90
24686;DHT22;12804;51.176;4.452;2023-02-22T07:35:54;7.50;99.90
24686;DHT22;12804;51.176;4.452;2023-02-22T07:38:19;7.30;99.90
24686;DHT22;12804;51.176;4.452;2023-02-22T07:40:46;7.00;99.90
24686;DHT22;12804;51.176;4.452;2023-02-22T07:43:17;6.90;99.90
24686;DHT22;12804;51.176;4.452;2023-02-22T07:45:45;6.70;99.90
24686;DHT22;12804;51.176;4.452;2023-02-22T07:48:12;6.60;99.90
24686;DHT22;12804;51.176;4.452;2023-02-22T07:50:39;6.70;99.90
24686;DHT22;12804;51.176;4.452;2023-02-22T07:53:07;6.70;99.90
24686;DHT22;12804;51.176;4.452;2023-02-22T07:55:35;6.70;99.90
24686;DHT22;12804;51.176;4.452;2023-02-22T07:58:03;6.80;99.90
24686;DHT22;12804;51.176;4.452;2023-02-22T08:00:32;6.80;99.90
24686;DHT22;12804;51.176;4.452;2023-02-22T08:03:02;6.90;99.90
24686;DHT22;12804;51.176;4.452;2023-02-22T08:05:29;7.00;99.90
24686;DHT22;12804;51.176;4.452;2023-02-22T08:07:55;7.00;99.90
24686;DHT22;12804;51.176;4.452;2023-02-22T08:10:23;7.00;99.90
24686;DHT22;12804;51.176;4.452;2023-02-22T08:12:50;7.00;99.90
24686;DHT22;12804;51.176;4.452;2023-02-22T08:15:31;7.10;99.90
24686;DHT22;12804;51.176;4.452;2023-02-22T08:17:58;7.20;99.90
24686;DHT22;12804;51.176;4.452;2023-02-22T08:20:26;7.10;99.90
24686;DHT22;12804;51.176;4.452;2023-02-22T08:22:52;7.00;99.90
24686;DHT22;12804;51.176;4.452;2023-02-22T08:25:20;7.10;99.90
24686;DHT22;12804;51.176;4.452;2023-02-22T08:27:46;7.30;99.90
24686;DHT22;12804;51.176;4.452;2023-02-22T08:30:20;7.40;99.90
24686;DHT22;12804;51.176;4.452;2023-02-22T08:32:47;7.20;99.90
24686;DHT22;12804;51.176;4.452;2023-02-22T08:35:17;7.30;99.90
24686;DHT22;12804;51.176;4.452;2023-02-22T08:37:45;7.40;99.90
24686;DHT22;12804;51.176;4.452;2023-02-22T08:40:12;7.40;99.90
24686;DHT22;12804;51.176;4.452;2023-02-22T08:42:38;7.50;99.90
24686;DHT22;12804;51.176;4.452;2023-02-22T08:45:05;7.60;99.90
24686;DHT22;12804;51.176;4.452;2023-02-22T08:47:30;7.60;99.90
24686;DHT22;12804;51.176;4.452;2023-02-22T08:49:56;7.50;99.90
24686;DHT22;12804;51.176;4.452;2023-02-22T08:52:22;7.30;99.90
24686;DHT22;12804;51.176;4.452;2023-02-22T08:54:48;7.30;99.90
24686;DHT22;12804;51.176;4.452;2023-02-22T08:57:14;7.00;99.90
24686;DHT22;12804;51.176;4.452;2023-02-22T08:59:39;7.20;99.90
24686;DHT22;12804;51.176;4.452;2023-02-22T09:02:09;7.20;99.90
24686;DHT22;12804;51.176;4.452;2023-02-22T09:04:38;6.90;99.90
24686;DHT22;12804;51.176;4.452;2023-02-22T09:07:04;7.10;99.90
24686;DHT22;12804;51.176;4.452;2023-02-22T09:09:29;7.10;99.90
24686;DHT22;12804;51.176;4.452;2023-02-22T09:11:55;7.30;99.90
24686;DHT22;12804;51.176;4.452;2023-02-22T09:14:21;7.50;99.90
24686;DHT22;12804;51.176;4.452;2023-02-22T09:16:47;7.80;99.90
24686;DHT22;12804;51.176;4.452;2023-02-22T09:19:13;7.90;99.90
24686;DHT22;12804;51.176;4.452;2023-02-22T09:21:39;7.90;99.90
24686;DHT22;12804;51.176;4.452;2023-02-22T09:24:05;7.90;99.90
24686;DHT22;12804;51.176;4.452;2023-02-22T09:26:37;8.00;99.90
24686;DHT22;12804;51.176;4.452;2023-02-22T09:29:07;8.10;99.90
24686;DHT22;12804;51.176;4.452;2023-02-22T09:31:38;7.90;99.90
24686;DHT22;12804;51.176;4.452;2023-02-22T09:34:06;7.60;99.90
24686;DHT22;12804;51.176;4.452;2023-02-22T09:36:42;7.50;99.90
24686;DHT22;12804;51.176;4.452;2023-02-22T09:39:08;7.60;99.90
24686;DHT22;12804;51.176;4.452;2023-02-22T09:44:19;7.80;99.90
24686;DHT22;12804;51.176;4.452;2023-02-22T09:46:48;8.00;99.90
24686;DHT22;12804;51.176;4.452;2023-02-22T09:49:35;8.20;99.90
24686;DHT22;12804;51.176;4.452;2023-02-22T09:52:07;8.40;99.90
24686;DHT22;12804;51.176;4.452;2023-02-22T09:55:19;8.60;99.90
24686;DHT22;12804;51.176;4.452;2023-02-22T09:57:42;8.20;99.90
24686;DHT22;12804;51.176;4.452;2023-02-22T10:00:19;8.50;99.90
24686;DHT22;12804;51.176;4.452;2023-02-22T10:05:50;8.30;99.90
24686;DHT22;12804;51.176;4.452;2023-02-22T10:08:18;8.60;99.90
24686;DHT22;12804;51.176;4.452;2023-02-22T10:10:46;8.80;99.90
24686;DHT22;12804;51.176;4.452;2023-02-22T10:15:58;8.60;99.90
24686;DHT22;12804;51.176;4.452;2023-02-22T10:18:49;9.00;99.90
24686;DHT22;12804;51.176;4.452;2023-02-22T10:28:02;9.30;99.90
24686;DHT22;12804;51.176;4.452;2023-02-22T10:30:42;9.30;99.90
24686;DHT22;12804;51.176;4.452;2023-02-22T10:33:13;9.90;99.90
24686;DHT22;12804;51.176;4.452;2023-02-22T10:35:40;9.90;99.90
24686;DHT22;12804;51.176;4.452;2023-02-22T10:38:22;9.70;99.90
24686;DHT22;12804;51.176;4.452;2023-02-22T10:43:19;9.70;99.90
24686;DHT22;12804;51.176;4.452;2023-02-22T10:45:45;9.80;99.90
24686;DHT22;12804;51.176;4.452;2023-02-22T10:48:15;10.20;99.90
24686;DHT22;12804;51.176;4.452;2023-02-22T10:50:43;10.30;99.90
24686;DHT22;12804;51.176;4.452;2023-02-22T10:53:11;10.60;99.90
24686;DHT22;12804;51.176;4.452;2023-02-22T10:56:17;10.80;99.90
24686;DHT22;12804;51.176;4.452;2023-02-22T10:58:54;11.10;99.90
24686;DHT22;12804;51.176;4.452;2023-02-22T11:04:01;10.60;99.90
24686;DHT22;12804;51.176;4.452;2023-02-22T11:06:30;10.00;99.90
24686;DHT22;12804;51.176;4.452;2023-02-22T11:09:05;9.80;99.90
24686;DHT22;12804;51.176;4.452;2023-02-22T11:11:35;9.70;99.90
24686;DHT22;12804;51.176;4.452;2023-02-22T11:14:01;9.90;99.90
24686;DHT22;12804;51.176;4.452;2023-02-22T11:16:36;10.10;99.90
24686;DHT22;12804;51.176;4.452;2023-02-22T11:19:15;10.30;99.90
24686;DHT22;12804;51.176;4.452;2023-02-22T11:21:42;10.30;99.90
24686;DHT22;12804;51.176;4.452;2023-02-22T11:24:13;10.10;99.90
24686;DHT22;12804;51.176;4.452;2023-02-22T11:27:08;9.90;99.90
24686;DHT22;12804;51.176;4.452;2023-02-22T11:29:35;9.90;99.90
24686;DHT22;12804;51.176;4.452;2023-02-22T11:32:11;9.90;99.90
24686;DHT22;12804;51.176;4.452;2023-02-22T11:34:40;10.10;99.90
24686;DHT22;12804;51.176;4.452;2023-02-22T11:37:35;10.30;99.90
24686;DHT22;12804;51.176;4.452;2023-02-22T11:42:42;10.30;99.90
24686;DHT22;12804;51.176;4.452;2023-02-22T11:45:15;10.30;99.90
24686;DHT22;12804;51.176;4.452;2023-02-22T11:47:57;10.30;99.90
24686;DHT22;12804;51.176;4.452;2023-02-22T12:02:51;10.80;99.90
24686;DHT22;12804;51.176;4.452;2023-02-22T12:11:14;11.00;99.90
24686;DHT22;12804;51.176;4.452;2023-02-22T12:16:57;11.10;99.90
24686;DHT22;12804;51.176;4.452;2023-02-22T12:24:47;11.20;99.90
24686;DHT22;12804;51.176;4.452;2023-02-22T12:27:26;11.30;99.90
24686;DHT22;12804;51.176;4.452;2023-02-22T12:30:06;11.40;99.90
24686;DHT22;12804;51.176;4.452;2023-02-22T12:32:56;11.50;99.90
24686;DHT22;12804;51.176;4.452;2023-02-22T12:35:30;11.40;99.90
24686;DHT22;12804;51.176;4.452;2023-02-22T12:38:29;11.40;99.90
24686;DHT22;12804;51.176;4.452;2023-02-22T12:44:01;11.50;99.90
24686;DHT22;12804;51.176;4.452;2023-02-22T12:46:40;11.40;99.90
24686;DHT22;12804;51.176;4.452;2023-02-22T12:52:02;11.20;99.90
24686;DHT22;12804;51.176;4.452;2023-02-22T12:55:01;11.30;99.90
24686;DHT22;12804;51.176;4.452;2023-02-22T13:00:15;11.40;99.90
24686;DHT22;12804;51.176;4.452;2023-02-22T13:02:59;11.60;99.90
24686;DHT22;12804;51.176;4.452;2023-02-22T13:05:29;11.40;99.90
24686;DHT22;12804;51.176;4.452;2023-02-22T13:19:35;11.70;99.90
24686;DHT22;12804;51.176;4.452;2023-02-22T13:22:31;11.50;99.90
24686;DHT22;12804;51.176;4.452;2023-02-22T13:25:35;11.60;99.90
24686;DHT22;12804;51.176;4.452;2023-02-22T13:28:27;11.90;99.90
24686;DHT22;12804;51.176;4.452;2023-02-22T13:39:26;12.10;99.90
24686;DHT22;12804;51.176;4.452;2023-02-22T13:46:02;12.50;99.90
24686;DHT22;12804;51.176;4.452;2023-02-22T13:53:25;11.60;99.90
24686;DHT22;12804;51.176;4.452;2023-02-22T13:55:55;11.60;99.90
24686;DHT22;12804;51.176;4.452;2023-02-22T13:58:23;11.40;99.90
24686;DHT22;12804;51.176;4.452;2023-02-22T14:00:57;11.30;99.90
24686;DHT22;12804;51.176;4.452;2023-02-22T14:03:28;11.20;99.90
24686;DHT22;12804;51.176;4.452;2023-02-22T14:05:59;11.30;99.90
24686;DHT22;12804;51.176;4.452;2023-02-22T14:13:23;11.80;99.90
24686;DHT22;12804;51.176;4.452;2023-02-22T14:18:27;12.00;99.90
24686;DHT22;12804;51.176;4.452;2023-02-22T14:21:13;11.90;99.90
24686;DHT22;12804;51.176;4.452;2023-02-22T14:23:44;11.80;99.90
24686;DHT22;12804;51.176;4.452;2023-02-22T14:32:14;11.30;99.90
24686;DHT22;12804;51.176;4.452;2023-02-22T14:34:42;11.60;99.90
24686;DHT22;12804;51.176;4.452;2023-02-22T14:37:24;11.80;99.90
24686;DHT22;12804;51.176;4.452;2023-02-22T14:40:02;12.00;99.90
24686;DHT22;12804;51.176;4.452;2023-02-22T14:43:00;12.20;99.90
24686;DHT22;12804;51.176;4.452;2023-02-22T14:45:33;12.30;99.90
24686;DHT22;12804;51.176;4.452;2023-02-22T14:48:21;12.40;99.90
24686;DHT22;12804;51.176;4.452;2023-02-22T14:50:57;12.20;99.90
24686;DHT22;12804;51.176;4.452;2023-02-22T14:53:32;12.10;99.90
24686;DHT22;12804;51.176;4.452;2023-02-22T14:59:01;11.70;99.90
24686;DHT22;12804;51.176;4.452;2023-02-22T15:01:38;11.50;99.90
24686;DHT22;12804;51.176;4.452;2023-02-22T15:04:24;11.50;99.90
24686;DHT22;12804;51.176;4.452;2023-02-22T15:06:52;11.40;99.90
24686;DHT22;12804;51.176;4.452;2023-02-22T15:09:24;11.40;99.90
24686;DHT22;12804;51.176;4.452;2023-02-22T15:14:31;11.10;99.90
24686;DHT22;12804;51.176;4.452;2023-02-22T15:17:04;11.10;99.90
24686;DHT22;12804;51.176;4.452;2023-02-22T15:19:34;10.90;99.90
24686;DHT22;12804;51.176;4.452;2023-02-22T15:22:02;10.80;99.90
24686;DHT22;12804;51.176;4.452;2023-02-22T15:24:36;10.90;99.90
24686;DHT22;12804;51.176;4.452;2023-02-22T15:27:13;11.00;99.90
24686;DHT22;12804;51.176;4.452;2023-02-22T15:29:42;11.00;99.90
24686;DHT22;12804;51.176;4.452;2023-02-22T15:35:27;11.00;99.90
24686;DHT22;12804;51.176;4.452;2023-02-22T15:38:16;10.80;99.90
24686;DHT22;12804;51.176;4.452;2023-02-22T15:40:45;10.70;99.90
24686;DHT22;12804;51.176;4.452;2023-02-22T15:43:24;10.50;99.90
24686;DHT22;12804;51.176;4.452;2023-02-22T15:45:54;10.50;99.90
24686;DHT22;12804;51.176;4.452;2023-02-22T15:48:20;10.50;99.90
24686;DHT22;12804;51.176;4.452;2023-02-22T15:53:30;10.40;99.90
24686;DHT22;12804;51.176;4.452;2023-02-22T15:55:57;10.60;99.90
24686;DHT22;12804;51.176;4.452;2023-02-22T15:58:25;10.60;99.90
24686;DHT22;12804;51.176;4.452;2023-02-22T16:01:09;10.50;99.90
24686;DHT22;12804;51.176;4.452;2023-02-22T16:03:52;10.40;99.90
24686;DHT22;12804;51.176;4.452;2023-02-22T16:06:30;10.50;99.90
24686;DHT22;12804;51.176;4.452;2023-02-22T16:09:14;10.60;99.90
24686;DHT22;12804;51.176;4.452;2023-02-22T16:11:43;10.70;99.90
24686;DHT22;12804;51.176;4.452;2023-02-22T16:19:53;10.40;99.90
24686;DHT22;12804;51.176;4.452;2023-02-22T16:22:32;10.10;99.90
24686;DHT22;12804;51.176;4.452;2023-02-22T16:27:44;10.20;99.90
24686;DHT22;12804;51.176;4.452;2023-02-22T16:32:45;10.20;99.90
24686;DHT22;12804;51.176;4.452;2023-02-22T16:35:11;10.10;99.90
24686;DHT22;12804;51.176;4.452;2023-02-22T16:37:56;10.10;99.90
24686;DHT22;12804;51.176;4.452;2023-02-22T16:40:26;9.90;99.90
24686;DHT22;12804;51.176;4.452;2023-02-22T16:43:07;9.80;99.90
24686;DHT22;12804;51.176;4.452;2023-02-22T16:45:36;9.70;99.90
24686;DHT22;12804;51.176;4.452;2023-02-22T16:48:19;9.70;99.90
24686;DHT22;12804;51.176;4.452;2023-02-22T16:50:46;9.70;99.90
24686;DHT22;12804;51.176;4.452;2023-02-22T16:53:13;9.60;99.90
24686;DHT22;12804;51.176;4.452;2023-02-22T16:55:43;9.50;99.90
24686;DHT22;12804;51.176;4.452;2023-02-22T16:58:11;9.60;99.90
24686;DHT22;12804;51.176;4.452;2023-02-22T17:00:39;9.80;99.90
24686;DHT22;12804;51.176;4.452;2023-02-22T17:03:13;9.70;99.90
24686;DHT22;12804;51.176;4.452;2023-02-22T17:05:40;9.70;99.90
24686;DHT22;12804;51.176;4.452;2023-02-22T17:08:06;9.80;99.90
24686;DHT22;12804;51.176;4.452;2023-02-22T17:10:32;9.80;99.90
24686;DHT22;12804;51.176;4.452;2023-02-22T17:12:59;10.00;99.90
24686;DHT22;12804;51.176;4.452;2023-02-22T17:15:27;10.20;99.90
24686;DHT22;12804;51.176;4.452;2023-02-22T17:17:54;10.20;99.90
24686;DHT22;12804;51.176;4.452;2023-02-22T17:20:21;10.30;99.90
24686;DHT22;12804;51.176;4.452;2023-02-22T17:23:04;10.40;99.90
24686;DHT22;12804;51.176;4.452;2023-02-22T17:25:53;10.40;99.90
24686;DHT22;12804;51.176;4.452;2023-02-22T17:28:20;10.50;99.90
24686;DHT22;12804;51.176;4.452;2023-02-22T17:30:46;10.60;99.90
24686;DHT22;12804;51.176;4.452;2023-02-22T17:33:19;10.60;99.90
24686;DHT22;12804;51.176;4.452;2023-02-22T17:35:46;10.20;99.90
24686;DHT22;12804;51.176;4.452;2023-02-22T17:38:13;10.30;99.90
24686;DHT22;12804;51.176;4.452;2023-02-22T17:40:44;10.20;99.90
24686;DHT22;12804;51.176;4.452;2023-02-22T17:43:10;10.00;99.90
24686;DHT22;12804;51.176;4.452;2023-02-22T17:45:37;9.90;99.90
24686;DHT22;12804;51.176;4.452;2023-02-22T17:48:04;9.90;99.90
24686;DHT22;12804;51.176;4.452;2023-02-22T17:50:30;9.70;99.90
24686;DHT22;12804;51.176;4.452;2023-02-22T17:52:58;9.60;99.90
24686;DHT22;12804;51.176;4.452;2023-02-22T17:55:28;9.70;99.90
24686;DHT22;12804;51.176;4.452;2023-02-22T17:57:56;9.70;99.90
24686;DHT22;12804;51.176;4.452;2023-02-22T18:00:27;9.60;99.90
24686;DHT22;12804;51.176;4.452;2023-02-22T18:03:06;9.60;99.90
24686;DHT22;12804;51.176;4.452;2023-02-22T18:05:37;9.60;99.90
24686;DHT22;12804;51.176;4.452;2023-02-22T18:08:03;9.60;99.90
24686;DHT22;12804;51.176;4.452;2023-02-22T18:10:28;9.50;99.90
24686;DHT22;12804;51.176;4.452;2023-02-22T18:12:54;9.60;99.90
24686;DHT22;12804;51.176;4.452;2023-02-22T18:15:22;9.50;99.90
24686;DHT22;12804;51.176;4.452;2023-02-22T18:17:48;9.50;99.90
24686;DHT22;12804;51.176;4.452;2023-02-22T18:20:15;9.50;99.90
24686;DHT22;12804;51.176;4.452;2023-02-22T18:22:44;9.50;99.90
24686;DHT22;12804;51.176;4.452;2023-02-22T18:25:14;9.50;99.90
24686;DHT22;12804;51.176;4.452;2023-02-22T18:27:41;9.50;99.90
24686;DHT22;12804;51.176;4.452;2023-02-22T18:30:11;9.40;99.90
24686;DHT22;12804;51.176;4.452;2023-02-22T18:32:37;9.50;99.90
24686;DHT22;12804;51.176;4.452;2023-02-22T18:35:04;9.50;99.90